map of EBBL home
Great Circle Mapper logo
EBBL - Airport
Location
City:  Kleine Brogel, Belgium
ICAO:EBBL

Details
Type:Airport (Aerodrome, Airfield)
Use:Military, International (customs port of entry)
Latitude:5110'06"N (51.168333)
Longitude:528'12"E (5.470000)
Datum:WGS 1984
Elevation:200 ft (61 m)
Runways:2
Longest:10158 × 148 ft (3096 × 45 m), paved

Time
Time Zone:UTC+1 (DST+2)
Local Time:

Weather
METAR:EBBL 271625Z 08005KT 9999 FEW037 SCT220 20/12 Q1016 BLU
TAF:EBBL 271541Z 2719/2807 09006KT 9999 FEW030
BECMG 2801/2803 15006KT SCT030
TEMPO 2803/2807 5000 BR

Related Locations
Nearby:
Farthest:CHT: 11914 mi / 19174 km
Waitangi [Tuuta], Chatham Islands, NZ

Find:

   beyond  
but within

Other Information
Maps:
NOTAMs:
Links:
Sources:

  
flag of Belgium   

Airport Diagram

Airport diagram for EBBL

Airport diagram (OBSOLETE) from NGA

Sectional Chart

Flight Planning
at skyvector.com

Satellite Image

Google Maps Satellite View

 

Copyright © 2004-2014 Karl L. Swartz. All rights reserved.
The Great Circle Mapper name and logo are trademarks of the Great Circle Mapper.
All other trademarks mentioned herein belong to their respective owners.
Please see credits for attibutions and further copyright information.

  Follow gcmap on Facebook Follow gcmap on Twitter

hCard Microformat

Geo Microformat